createdAt,value
2022-12-20T00:03:18.352Z,101213.28
2022-12-20T00:08:20.967Z,101211.34
2022-12-20T00:13:24.779Z,101235.47
2022-12-20T00:18:27.271Z,101222.44
2022-12-20T00:23:30.618Z,101232.97
2022-12-20T00:28:35.671Z,101214.06
2022-12-20T00:33:39.914Z,101200.53
2022-12-20T00:38:42.794Z,101191.16
2022-12-20T00:43:47.264Z,101193.50
2022-12-20T00:48:50.376Z,101195.97
2022-12-20T00:53:53.265Z,101201.59
2022-12-20T00:58:59.204Z,101214.34
2022-12-20T01:04:02.178Z,101209.94
2022-12-20T01:09:05.182Z,101215.66
2022-12-20T01:14:13.609Z,101198.44
2022-12-20T01:19:18.824Z,101195.59
2022-12-20T01:24:21.526Z,101189.50
2022-12-20T01:29:25.333Z,101191.84
2022-12-20T01:34:27.829Z,101178.81
2022-12-20T01:39:30.305Z,101169.81
2022-12-20T01:44:55.593Z,101170.47
2022-12-20T01:49:59.889Z,101165.94
2022-12-20T01:55:08.067Z,101156.53
2022-12-20T02:00:13.610Z,101147.03
2022-12-20T02:05:17.589Z,101147.16
2022-12-20T02:10:24.506Z,101148.84
2022-12-20T02:15:39.283Z,101165.38
2022-12-20T02:21:07.670Z,101162.00
2022-12-20T02:26:30.442Z,101154.06
2022-12-20T02:31:41.439Z,101156.53
2022-12-20T02:36:44.005Z,101155.25
2022-12-20T02:41:52.576Z,101136.59
2022-12-20T02:46:59.521Z,101157.84
2022-12-20T02:52:04.318Z,101165.13
2022-12-20T02:57:13.021Z,101159.22
2022-12-20T03:02:17.191Z,101153.25
2022-12-20T03:07:22.242Z,101158.06
2022-12-20T03:12:24.767Z,101154.00
2022-12-20T03:17:28.673Z,101157.66
2022-12-20T03:22:31.567Z,101159.75
2022-12-20T03:27:34.420Z,101150.34
2022-12-20T03:32:38.422Z,101147.97
2022-12-20T03:37:40.924Z,101156.31
2022-12-20T03:42:43.708Z,101149.66
2022-12-20T03:47:47.605Z,101145.47
2022-12-20T03:52:50.096Z,101139.88
2022-12-20T03:57:52.586Z,101141.03
2022-12-20T04:02:56.938Z,101153.31
2022-12-20T04:08:00.788Z,101147.28
2022-12-20T04:13:03.285Z,101133.59
2022-12-20T04:18:07.140Z,101138.28
2022-12-20T04:23:09.618Z,101141.13
2022-12-20T04:28:12.173Z,101136.97
2022-12-20T04:33:15.997Z,101144.34
2022-12-20T04:38:18.703Z,101141.31
2022-12-20T04:43:22.665Z,101128.53
2022-12-20T04:53:50.696Z,101122.09
2022-12-20T04:58:54.673Z,101113.50
2022-12-20T05:03:58.562Z,101112.72
2022-12-20T05:09:01.384Z,101107.03
2022-12-20T05:14:03.889Z,101096.06
2022-12-20T05:19:07.715Z,101093.03
2022-12-20T05:24:28.394Z,101097.03
2022-12-20T05:29:30.914Z,101105.66
2022-12-20T05:34:34.776Z,101104.75
2022-12-20T05:39:37.391Z,101099.66
2022-12-20T05:44:39.882Z,101091.03
2022-12-20T05:49:43.715Z,101088.53
2022-12-20T05:54:46.195Z,101089.44
2022-12-20T05:59:49.083Z,101101.03
2022-12-20T06:04:52.882Z,101101.94
2022-12-20T06:09:55.450Z,101090.47
2022-12-20T06:14:57.920Z,101087.72
2022-12-20T06:20:01.815Z,101089.44
2022-12-20T06:25:04.842Z,101094.53
2022-12-20T06:30:09.570Z,101085.00
2022-12-20T06:35:14.293Z,101086.72
2022-12-20T06:40:17.124Z,101090.09
2022-12-20T06:45:19.835Z,101090.91
2022-12-20T06:50:23.661Z,101099.41
2022-12-20T06:55:26.285Z,101105.41
2022-12-20T07:00:28.889Z,101112.34
2022-12-20T07:05:32.706Z,101103.69
2022-12-20T07:10:36.536Z,101098.47
2022-12-20T07:15:39.106Z,101100.44
2022-12-20T07:20:42.895Z,101106.69
2022-12-20T07:25:45.921Z,101102.38
2022-12-20T07:30:48.435Z,101098.97
2022-12-20T07:35:54.750Z,101114.53
2022-12-20T07:40:57.531Z,101117.25
2022-12-20T07:46:00.294Z,101119.84
2022-12-20T07:51:07.721Z,101106.00
2022-12-20T07:56:11.448Z,101099.09
2022-12-20T08:01:15.026Z,101101.94
2022-12-20T08:06:19.926Z,101108.28
2022-12-20T08:11:23.892Z,101106.84
2022-12-20T08:16:26.816Z,101102.09
2022-12-20T08:21:30.930Z,101098.16
2022-12-20T08:26:38.468Z,101090.66
2022-12-20T08:31:49.382Z,101088.19
2022-12-20T08:36:54.436Z,101086.47
2022-12-20T08:41:56.998Z,101089.06
2022-12-20T08:46:59.471Z,101080.47
2022-12-20T08:52:04.058Z,101086.94
2022-12-20T08:57:06.528Z,101085.59
2022-12-20T09:02:09.243Z,101088.31
2022-12-20T09:07:13.552Z,101092.88
2022-12-20T09:12:16.033Z,101091.25
2022-12-20T09:17:18.539Z,101078.34
2022-12-20T09:22:22.530Z,101086.41
2022-12-20T09:27:25.109Z,101094.59
2022-12-20T09:32:27.655Z,101090.59
2022-12-20T09:37:32.660Z,101078.69
2022-12-20T09:42:35.235Z,101067.13
2022-12-20T09:47:39.157Z,101064.28
2022-12-20T09:53:05.897Z,101076.31
2022-12-20T09:58:21.418Z,101065.41
2022-12-20T10:03:27.031Z,101069.59
2022-12-20T10:08:46.359Z,101051.63
2022-12-20T10:13:59.459Z,101058.44
2022-12-20T10:19:14.714Z,101048.22
2022-12-20T10:24:20.455Z,101029.34
2022-12-20T10:29:23.127Z,101036.81
2022-12-20T10:34:27.832Z,101022.38
2022-12-20T10:39:44.040Z,101027.25
2022-12-20T10:44:46.694Z,101016.41
2022-12-20T10:49:49.361Z,101013.44
2022-12-20T10:54:53.343Z,101001.34
2022-12-20T10:59:58.297Z,100994.63
2022-12-20T11:05:02.696Z,100996.88
2022-12-20T11:10:21.929Z,100978.31
2022-12-20T11:15:34.248Z,100978.16
2022-12-20T11:20:43.598Z,100967.28
2022-12-20T11:26:00.311Z,100959.75
2022-12-20T11:31:10.743Z,100959.16
2022-12-20T11:36:22.447Z,100941.03
2022-12-20T11:41:33.050Z,100930.94
2022-12-20T11:46:53.700Z,100930.25
2022-12-20T11:52:05.933Z,100908.69
2022-12-20T11:57:16.409Z,100916.16
2022-12-20T12:02:24.970Z,100921.78
2022-12-20T12:07:32.596Z,100906.28
2022-12-20T12:12:43.507Z,100908.97
2022-12-20T12:17:50.601Z,100903.94
2022-12-20T12:23:01.804Z,100889.06
2022-12-20T12:28:06.716Z,100879.38
2022-12-20T12:33:23.998Z,100893.25
2022-12-20T12:39:01.724Z,100879.28
2022-12-20T12:44:31.490Z,100873.94
2022-12-20T12:49:34.871Z,100866.78
2022-12-20T12:54:40.359Z,100872.13
2022-12-20T12:59:48.141Z,100868.69
2022-12-20T13:04:56.132Z,100871.31
2022-12-20T13:09:59.569Z,100867.69
2022-12-20T13:15:04.356Z,100866.59
2022-12-20T13:20:18.847Z,100856.91
2022-12-20T13:25:30.888Z,100859.25
2022-12-20T13:30:34.854Z,100848.66
2022-12-20T13:36:04.275Z,100868.81
2022-12-20T13:41:20.115Z,100868.00
2022-12-20T13:46:28.752Z,100846.84
2022-12-20T13:51:32.491Z,100859.84
2022-12-20T13:56:42.648Z,100843.22
2022-12-20T14:01:51.644Z,100845.94
2022-12-20T14:06:58.086Z,100852.81
2022-12-20T14:12:06.156Z,100839.59
2022-12-20T14:17:26.748Z,100835.19
2022-12-20T14:22:29.439Z,100836.69
2022-12-20T14:27:36.953Z,100827.84
2022-12-20T14:32:40.805Z,100823.50
2022-12-20T14:37:54.123Z,100815.44
2022-12-20T14:42:57.700Z,100803.97
2022-12-20T14:48:04.415Z,100804.59
2022-12-20T14:53:20.034Z,100796.63
2022-12-20T14:58:28.088Z,100801.66
2022-12-20T15:03:31.980Z,100794.53
2022-12-20T15:08:38.324Z,100788.16
2022-12-20T15:13:43.044Z,100783.53
2022-12-20T15:18:46.975Z,100798.13
2022-12-20T15:23:51.542Z,100798.03
2022-12-20T15:28:54.799Z,100795.44
2022-12-20T15:33:58.755Z,100800.66
2022-12-20T15:39:16.659Z,100784.03
2022-12-20T15:44:21.803Z,100782.16
2022-12-20T15:49:28.461Z,100791.59
2022-12-20T15:54:33.641Z,100783.63
2022-12-20T16:05:01.473Z,100796.31
2022-12-20T16:10:04.446Z,100785.34
2022-12-20T16:15:12.514Z,100781.63
2022-12-20T16:20:16.635Z,100778.50
2022-12-20T16:25:26.987Z,100781.69
2022-12-20T16:30:30.468Z,100780.56
2022-12-20T16:35:37.278Z,100773.94
2022-12-20T16:40:39.851Z,100777.81
2022-12-20T16:45:42.567Z,100771.09
2022-12-20T16:50:46.388Z,100771.66
2022-12-20T16:56:06.518Z,100771.59
2022-12-20T17:01:16.950Z,100770.16
2022-12-20T17:06:21.045Z,100776.41
2022-12-20T17:11:26.543Z,100765.91
2022-12-20T17:16:29.508Z,100778.59
2022-12-20T17:26:56.635Z,100767.66
2022-12-20T17:31:59.154Z,100769.56
2022-12-20T17:37:03.086Z,100769.94
2022-12-20T17:42:06.075Z,100766.53
2022-12-20T17:47:09.092Z,100758.31
2022-12-20T17:52:15.437Z,100756.97
2022-12-20T17:57:18.100Z,100746.56
2022-12-20T18:02:22.720Z,100747.63
2022-12-20T18:07:26.815Z,100745.84
2022-12-20T18:12:35.600Z,100729.75
2022-12-20T18:17:42.129Z,100735.63
2022-12-20T18:22:52.816Z,100727.47
2022-12-20T18:28:00.209Z,100740.66
2022-12-20T18:33:02.728Z,100740.28
2022-12-20T18:38:06.752Z,100737.97
2022-12-20T18:43:09.294Z,100732.38
2022-12-20T18:48:11.867Z,100723.78
2022-12-20T18:53:15.725Z,100721.47
2022-12-20T18:58:18.242Z,100712.91
2022-12-20T19:03:20.859Z,100714.09
2022-12-20T19:08:26.056Z,100714.56
2022-12-20T19:13:28.669Z,100719.34
2022-12-20T19:18:31.657Z,100732.72
2022-12-20T19:23:36.946Z,100737.34
2022-12-20T19:28:40.673Z,100735.44
2022-12-20T19:33:45.571Z,100738.69
2022-12-20T19:38:51.549Z,100738.00
2022-12-20T19:43:54.303Z,100730.41
2022-12-20T19:48:57.139Z,100741.69
2022-12-20T19:54:01.406Z,100731.66
2022-12-20T19:59:04.662Z,100730.25
2022-12-20T20:04:09.893Z,100723.47
2022-12-20T20:09:13.870Z,100718.78
2022-12-20T20:14:16.397Z,100718.53
2022-12-20T20:19:19.194Z,100718.25
2022-12-20T20:24:23.083Z,100726.28
2022-12-20T20:29:25.556Z,100722.44
2022-12-20T20:34:28.316Z,100715.28
2022-12-20T20:39:32.206Z,100718.78
2022-12-20T20:44:34.718Z,100710.91
2022-12-20T20:49:37.246Z,100711.84
2022-12-20T20:54:41.123Z,100719.63
2022-12-20T20:59:44.273Z,100716.72
2022-12-20T21:05:14.447Z,100725.03
2022-12-20T21:10:11.186Z,100720.34
2022-12-20T21:15:23.337Z,100718.34
2022-12-20T21:20:26.762Z,100718.97
2022-12-20T21:25:30.619Z,100724.66
2022-12-20T21:30:33.215Z,100717.31
2022-12-20T21:35:35.742Z,100716.13
2022-12-20T21:40:39.563Z,100713.41
2022-12-20T21:45:42.063Z,100712.53
2022-12-20T21:50:44.581Z,100710.44
2022-12-20T21:55:48.410Z,100701.28
2022-12-20T22:00:54.874Z,100696.56
2022-12-20T22:05:57.924Z,100699.94
2022-12-20T22:11:02.758Z,100703.16
2022-12-20T22:16:06.674Z,100700.25
2022-12-20T22:21:11.488Z,100702.47
2022-12-20T22:26:16.954Z,100706.63
2022-12-20T22:31:20.137Z,100700.19
2022-12-20T22:36:23.029Z,100699.91
2022-12-20T22:41:28.991Z,100697.91
2022-12-20T22:46:33.163Z,100689.16
2022-12-20T22:51:35.718Z,100689.88
2022-12-20T22:56:39.545Z,100686.34
2022-12-20T23:01:42.098Z,100679.22
2022-12-20T23:06:44.779Z,100686.97
2022-12-20T23:12:06.381Z,100690.28
2022-12-20T23:17:10.689Z,100691.00
2022-12-20T23:22:30.867Z,100689.91
2022-12-20T23:27:35.273Z,100686.28
2022-12-20T23:32:38.239Z,100683.66
2022-12-20T23:37:41.168Z,100667.16
2022-12-20T23:42:45.423Z,100669.06
2022-12-20T23:47:47.911Z,100670.97
2022-12-20T23:52:50.394Z,100671.69
2022-12-20T23:57:54.424Z,100668.16
